createdAt,value
2023-11-15T00:00:19.558Z,11.20
2023-11-15T00:02:49.566Z,8.70
2023-11-15T00:05:17.300Z,8.90
2023-11-15T00:07:45.421Z,9.90
2023-11-15T00:10:14.872Z,9.00
2023-11-15T00:12:43.874Z,9.10
2023-11-15T00:15:11.373Z,10.50
2023-11-15T00:17:38.974Z,12.60
2023-11-15T00:20:07.279Z,12.40
2023-11-15T00:22:35.099Z,9.90
2023-11-15T00:25:04.921Z,10.60
2023-11-15T00:27:32.977Z,9.90
2023-11-15T00:30:01.266Z,10.50
2023-11-15T00:32:29.169Z,9.40
2023-11-15T00:34:57.005Z,10.10
2023-11-15T00:37:24.849Z,9.70
2023-11-15T00:39:53.398Z,8.50
2023-11-15T00:42:21.021Z,8.70
2023-11-15T00:44:48.600Z,8.70
2023-11-15T00:47:16.149Z,8.30
2023-11-15T00:49:47.048Z,8.60
2023-11-15T00:52:16.834Z,9.10
2023-11-15T00:54:44.379Z,10.40
2023-11-15T00:57:12.106Z,9.20
2023-11-15T00:59:45.721Z,9.00
2023-11-15T01:02:15.296Z,9.20
2023-11-15T01:04:47.820Z,9.60
2023-11-15T01:07:15.404Z,9.30
2023-11-15T01:09:44.087Z,7.20
2023-11-15T01:12:14.233Z,8.10
2023-11-15T01:14:44.708Z,8.00
2023-11-15T01:17:12.318Z,6.30
2023-11-15T01:19:39.853Z,6.90
2023-11-15T01:22:10.460Z,6.70
2023-11-15T01:24:42.719Z,7.40
2023-11-15T01:27:10.298Z,7.70
2023-11-15T01:29:38.209Z,7.90
2023-11-15T01:32:05.833Z,7.90
2023-11-15T01:34:33.359Z,7.10
2023-11-15T01:37:04.101Z,8.10
2023-11-15T01:39:31.618Z,9.50
2023-11-15T01:41:59.448Z,9.40
2023-11-15T01:44:27.058Z,9.30
2023-11-15T01:46:54.710Z,9.40
2023-11-15T01:49:22.962Z,8.60
2023-11-15T01:51:54.891Z,7.70
2023-11-15T01:54:22.941Z,7.60
2023-11-15T01:56:50.467Z,8.60
2023-11-15T01:59:21.136Z,8.80
2023-11-15T02:01:49.093Z,6.40
2023-11-15T02:04:16.607Z,6.30
2023-11-15T02:06:44.149Z,6.80
2023-11-15T02:09:15.216Z,6.30
2023-11-15T02:11:45.340Z,8.00
2023-11-15T02:14:15.758Z,8.40
2023-11-15T02:16:46.004Z,8.50
2023-11-15T02:19:17.230Z,8.20
2023-11-15T02:21:45.815Z,8.90
2023-11-15T02:24:13.334Z,8.70
2023-11-15T02:26:40.921Z,9.40
2023-11-15T02:29:09.007Z,9.50
2023-11-15T02:31:36.774Z,5.90
2023-11-15T02:34:04.468Z,5.00
2023-11-15T02:36:32.727Z,3.20
2023-11-15T02:39:00.667Z,2.70
2023-11-15T02:41:28.245Z,2.70
2023-11-15T02:43:57.101Z,3.50
2023-11-15T02:46:30.163Z,3.00
2023-11-15T02:51:25.151Z,2.30
2023-11-15T02:53:53.463Z,2.30
2023-11-15T02:56:21.364Z,2.10
2023-11-15T02:58:51.257Z,2.60
2023-11-15T03:01:18.995Z,2.90
2023-11-15T03:03:49.087Z,2.40
2023-11-15T03:06:16.809Z,1.70
2023-11-15T03:08:44.418Z,1.30
2023-11-15T03:11:12.165Z,1.60
2023-11-15T03:13:39.775Z,1.80
2023-11-15T03:16:08.044Z,1.70
2023-11-15T03:18:35.698Z,1.90
2023-11-15T03:21:04.266Z,2.00
2023-11-15T03:23:31.897Z,2.60
2023-11-15T03:26:00.256Z,3.10
2023-11-15T03:28:27.719Z,3.00
2023-11-15T03:30:55.615Z,2.60
2023-11-15T03:33:23.333Z,2.90
2023-11-15T03:35:51.171Z,2.80
2023-11-15T03:38:18.818Z,2.40
2023-11-15T03:40:46.287Z,2.50
2023-11-15T03:43:13.785Z,2.80
2023-11-15T03:45:41.332Z,3.10
2023-11-15T03:48:08.979Z,3.10
2023-11-15T03:50:36.649Z,3.20
2023-11-15T03:53:08.967Z,4.00
2023-11-15T03:55:38.844Z,4.60
2023-11-15T03:58:06.360Z,6.40
2023-11-15T04:00:33.963Z,9.00
2023-11-15T04:03:04.028Z,7.80
2023-11-15T04:05:33.076Z,6.50
2023-11-15T04:08:00.646Z,5.10
2023-11-15T04:10:30.650Z,5.40
2023-11-15T04:12:58.290Z,5.40
2023-11-15T04:15:28.061Z,4.60
2023-11-15T04:25:35.635Z,3.10
2023-11-15T04:28:05.896Z,3.30
2023-11-15T04:30:33.892Z,3.00
2023-11-15T04:33:01.439Z,4.00
2023-11-15T04:35:29.015Z,3.80
2023-11-15T04:37:58.631Z,3.60
2023-11-15T04:40:30.563Z,3.20
2023-11-15T04:43:00.525Z,3.30
2023-11-15T04:45:28.085Z,3.10
2023-11-15T04:47:57.856Z,3.00
2023-11-15T04:50:26.806Z,3.30
2023-11-15T04:52:57.785Z,3.30
2023-11-15T04:55:26.155Z,3.90
2023-11-15T04:57:53.642Z,3.50
2023-11-15T05:00:21.280Z,3.00
2023-11-15T05:02:48.936Z,3.80
2023-11-15T05:05:16.537Z,5.50
2023-11-15T05:07:44.134Z,6.30
2023-11-15T05:10:11.756Z,7.90
2023-11-15T05:12:39.253Z,9.00
2023-11-15T05:15:07.744Z,9.70
2023-11-15T05:17:35.388Z,7.20
2023-11-15T05:20:03.039Z,9.10
2023-11-15T05:22:30.490Z,11.10
2023-11-15T05:25:00.479Z,10.10
2023-11-15T05:27:28.180Z,10.30
2023-11-15T05:29:55.612Z,14.30
2023-11-15T05:32:23.269Z,13.20
2023-11-15T05:34:50.824Z,12.80
2023-11-15T05:37:18.963Z,10.00
2023-11-15T05:39:46.468Z,9.20
2023-11-15T05:42:13.926Z,10.10
2023-11-15T05:44:41.420Z,10.70
2023-11-15T05:47:09.176Z,10.90
2023-11-15T05:49:39.042Z,10.50
2023-11-15T05:52:06.634Z,11.60
2023-11-15T05:54:34.303Z,11.20
2023-11-15T05:57:02.389Z,10.30
2023-11-15T05:59:29.898Z,10.70
2023-11-15T06:01:57.501Z,10.40
2023-11-15T06:04:25.169Z,13.20
2023-11-15T06:06:52.730Z,11.10
2023-11-15T06:09:20.241Z,13.00
2023-11-15T06:11:47.885Z,11.70
2023-11-15T06:14:16.942Z,11.60
2023-11-15T06:16:44.592Z,9.90
2023-11-15T06:19:12.091Z,10.50
2023-11-15T06:21:43.555Z,10.90
2023-11-15T06:24:11.377Z,11.90
2023-11-15T06:26:39.116Z,12.50
2023-11-15T06:29:06.744Z,12.20
2023-11-15T06:31:37.496Z,12.60
2023-11-15T06:34:10.129Z,12.00
2023-11-15T06:36:38.299Z,10.80
2023-11-15T06:39:07.317Z,12.00
2023-11-15T06:41:40.372Z,13.00
2023-11-15T06:46:39.737Z,14.10
2023-11-15T06:49:08.313Z,14.00
2023-11-15T06:51:35.828Z,14.10
2023-11-15T06:54:04.015Z,14.50
2023-11-15T06:56:31.637Z,12.60
2023-11-15T06:58:59.184Z,14.50
2023-11-15T07:01:26.825Z,14.20
2023-11-15T07:03:55.677Z,14.10
2023-11-15T07:06:23.398Z,13.50
2023-11-15T07:08:51.118Z,14.40
2023-11-15T07:11:18.603Z,13.90
2023-11-15T07:13:46.082Z,14.70
2023-11-15T07:16:13.672Z,17.20
2023-11-15T07:18:41.322Z,21.50
2023-11-15T07:21:08.922Z,28.70
2023-11-15T07:23:37.062Z,30.70
2023-11-15T07:26:05.471Z,31.40
2023-11-15T07:28:33.033Z,36.10
2023-11-15T07:31:00.791Z,35.50
2023-11-15T07:33:28.592Z,38.40
2023-11-15T07:35:57.631Z,33.20
2023-11-15T07:38:25.901Z,32.60
2023-11-15T07:40:53.651Z,30.80
2023-11-15T07:43:21.376Z,30.20
2023-11-15T07:45:53.239Z,31.80
2023-11-15T07:48:21.112Z,32.40
2023-11-15T07:50:48.692Z,36.10
2023-11-15T07:53:16.358Z,34.70
2023-11-15T07:55:43.958Z,33.90
2023-11-15T07:58:12.463Z,28.00
2023-11-15T08:00:39.922Z,26.90
2023-11-15T08:03:09.424Z,20.90
2023-11-15T08:05:37.711Z,19.70
2023-11-15T08:08:07.673Z,19.40
2023-11-15T08:10:38.832Z,18.70
2023-11-15T08:13:06.581Z,17.10
2023-11-15T08:15:34.065Z,14.90
2023-11-15T08:18:01.867Z,11.30
2023-11-15T08:20:29.372Z,10.60
2023-11-15T08:22:58.435Z,11.80
2023-11-15T08:25:26.583Z,10.60
2023-11-15T08:27:54.101Z,12.40
2023-11-15T08:30:22.575Z,10.70
2023-11-15T08:32:50.331Z,11.00
2023-11-15T08:35:18.546Z,12.50
2023-11-15T08:37:46.244Z,13.00
2023-11-15T08:40:23.202Z,14.90
2023-11-15T08:42:58.580Z,18.30
2023-11-15T08:45:27.084Z,19.20
2023-11-15T08:47:59.219Z,14.70
2023-11-15T08:50:30.654Z,15.80
2023-11-15T08:52:58.102Z,16.10
2023-11-15T08:55:25.655Z,17.60
2023-11-15T08:57:53.206Z,18.60
2023-11-15T09:00:21.328Z,21.20
2023-11-15T09:02:50.097Z,32.10
2023-11-15T09:05:21.146Z,31.00
2023-11-15T09:07:48.999Z,33.60
2023-11-15T09:10:17.620Z,33.40
2023-11-15T09:12:48.143Z,34.30
2023-11-15T09:15:16.211Z,36.60
2023-11-15T09:17:48.071Z,42.80
2023-11-15T09:20:22.938Z,41.50
2023-11-15T09:22:50.951Z,36.80
2023-11-15T09:25:31.856Z,33.10
2023-11-15T09:28:00.815Z,27.40
2023-11-15T09:30:28.484Z,20.90
2023-11-15T09:32:56.395Z,19.10
2023-11-15T09:35:30.508Z,19.80
2023-11-15T09:37:58.678Z,16.30
2023-11-15T09:41:59.168Z,11.80
2023-11-15T09:44:27.377Z,11.50
2023-11-15T09:46:59.233Z,21.00
2023-11-15T09:49:29.661Z,10.90
2023-11-15T09:52:00.464Z,10.00
2023-11-15T09:54:30.337Z,10.70
2023-11-15T09:57:00.003Z,6.40
2023-11-15T09:59:30.823Z,5.00
2023-11-15T10:01:58.938Z,21.60
2023-11-15T10:04:29.476Z,78.40
2023-11-15T10:07:03.879Z,70.50
2023-11-15T10:09:44.882Z,17.10
2023-11-15T10:12:12.463Z,6.70
2023-11-15T10:14:54.318Z,6.50
2023-11-15T10:20:37.346Z,7.40
2023-11-15T10:23:28.425Z,5.90
2023-11-15T10:25:57.238Z,4.80
2023-11-15T10:28:34.043Z,6.30
2023-11-15T10:31:06.724Z,8.70
2023-11-15T10:33:39.040Z,6.30
2023-11-15T10:36:18.013Z,6.70
2023-11-15T10:38:55.511Z,7.90
2023-11-15T10:41:24.157Z,11.80
2023-11-15T10:43:52.746Z,10.50
2023-11-15T10:46:32.500Z,7.60
2023-11-15T10:49:01.780Z,6.20
2023-11-15T10:51:36.985Z,7.20
2023-11-15T10:54:04.576Z,8.90
2023-11-15T10:56:32.537Z,8.30
2023-11-15T10:59:01.377Z,4.90
2023-11-15T11:01:33.585Z,6.00
2023-11-15T11:04:06.253Z,6.40
2023-11-15T11:06:53.870Z,3.50
2023-11-15T11:09:47.073Z,4.20
2023-11-15T11:12:20.401Z,1.50
2023-11-15T11:14:50.539Z,1.00
2023-11-15T11:17:34.712Z,1.30
2023-11-15T11:20:03.725Z,1.00
2023-11-15T11:22:34.231Z,12.70
2023-11-15T11:25:08.400Z,4.10
2023-11-15T11:27:38.266Z,2.00
2023-11-15T11:30:16.068Z,1.00
2023-11-15T11:32:46.311Z,0.50
2023-11-15T11:35:15.258Z,1.70
2023-11-15T11:37:55.065Z,2.10
2023-11-15T11:40:26.708Z,3.40
2023-11-15T11:42:54.368Z,75.70
2023-11-15T11:45:24.630Z,121.00
2023-11-15T11:47:52.669Z,125.40
2023-11-15T11:50:21.519Z,47.80
2023-11-15T11:52:56.325Z,60.30
2023-11-15T11:55:24.721Z,52.20
2023-11-15T11:57:52.338Z,127.80
2023-11-15T12:00:22.724Z,33.40
2023-11-15T12:03:00.613Z,14.60
2023-11-15T12:05:33.349Z,13.20
2023-11-15T12:08:02.700Z,17.80
2023-11-15T12:10:30.482Z,19.90
2023-11-15T12:13:00.880Z,15.20
2023-11-15T12:15:28.682Z,10.70
2023-11-15T12:17:58.663Z,12.20
2023-11-15T12:20:27.249Z,77.20
2023-11-15T12:23:11.151Z,116.90
2023-11-15T12:25:54.583Z,65.80
2023-11-15T12:28:25.188Z,35.80
2023-11-15T12:30:55.408Z,8.40
2023-11-15T12:33:23.156Z,3.70
2023-11-15T12:35:52.847Z,1.80
2023-11-15T12:38:20.799Z,18.50
2023-11-15T12:40:48.917Z,5.10
2023-11-15T12:43:24.103Z,8.40
2023-11-15T12:45:53.229Z,2.80
2023-11-15T12:48:23.632Z,2.90
2023-11-15T12:51:00.316Z,2.00
2023-11-15T12:53:31.852Z,1.00
2023-11-15T12:56:00.051Z,1.50
2023-11-15T12:58:30.678Z,5.60
2023-11-15T13:00:59.259Z,4.70
2023-11-15T13:03:28.222Z,0.40
2023-11-15T13:06:08.815Z,5.80
2023-11-15T13:08:36.804Z,6.80
2023-11-15T13:11:04.659Z,3.20
2023-11-15T13:13:33.259Z,3.90
2023-11-15T13:16:00.865Z,12.30
2023-11-15T13:18:28.509Z,22.40
2023-11-15T13:20:59.363Z,13.50
2023-11-15T13:23:28.428Z,16.30
2023-11-15T13:25:55.947Z,8.70
2023-11-15T13:28:23.435Z,5.20
2023-11-15T13:30:51.079Z,6.50
2023-11-15T13:33:19.485Z,4.40
2023-11-15T13:35:47.702Z,4.50
2023-11-15T13:38:16.059Z,13.40
2023-11-15T13:40:46.035Z,4.80
2023-11-15T13:43:13.772Z,5.20
2023-11-15T13:45:43.466Z,13.40
2023-11-15T13:48:11.553Z,12.20
2023-11-15T13:50:40.452Z,4.40
2023-11-15T13:53:07.983Z,2.50
2023-11-15T13:55:35.488Z,2.30
2023-11-15T13:58:02.932Z,1.90
2023-11-15T14:00:34.932Z,1.60
2023-11-15T14:03:07.794Z,2.20
2023-11-15T14:05:35.535Z,1.50
2023-11-15T14:08:05.930Z,1.20
2023-11-15T14:10:33.526Z,2.70
2023-11-15T14:13:06.120Z,1.80
2023-11-15T14:15:34.428Z,2.30
2023-11-15T14:18:05.069Z,2.10
2023-11-15T14:20:32.842Z,3.60
2023-11-15T14:23:00.402Z,1.80
2023-11-15T14:25:33.294Z,1.60
2023-11-15T14:28:03.678Z,3.30
2023-11-15T14:30:31.329Z,3.90
2023-11-15T14:33:01.271Z,2.50
2023-11-15T14:35:29.766Z,2.20
2023-11-15T14:37:57.557Z,4.40
2023-11-15T14:40:25.879Z,2.00
2023-11-15T14:42:57.007Z,1.60
2023-11-15T14:45:26.852Z,1.70
2023-11-15T14:47:54.667Z,2.40
2023-11-15T14:50:23.982Z,2.70
2023-11-15T14:52:57.104Z,3.20
2023-11-15T14:57:58.090Z,3.30
2023-11-15T15:00:26.906Z,2.90
2023-11-15T15:03:04.234Z,3.30
2023-11-15T15:05:31.959Z,3.80
2023-11-15T15:07:59.642Z,3.90
2023-11-15T15:10:29.028Z,3.40
2023-11-15T15:12:56.676Z,3.60
2023-11-15T15:15:24.751Z,3.20
2023-11-15T15:17:53.050Z,3.10
2023-11-15T15:20:24.533Z,25.10
2023-11-15T15:22:54.875Z,10.90
2023-11-15T15:25:23.077Z,27.10
2023-11-15T15:27:51.136Z,27.40
2023-11-15T15:30:19.477Z,51.00
2023-11-15T15:32:47.935Z,28.60
2023-11-15T15:35:16.276Z,12.40
2023-11-15T15:37:47.481Z,25.60
2023-11-15T15:40:18.109Z,8.60
2023-11-15T15:42:48.537Z,18.30
2023-11-15T15:45:16.604Z,15.20
2023-11-15T15:47:47.491Z,20.80
2023-11-15T15:50:15.440Z,16.20
2023-11-15T15:52:43.292Z,16.50
2023-11-15T15:55:12.000Z,12.60
2023-11-15T15:57:39.720Z,13.10
2023-11-15T16:00:08.239Z,10.80
2023-11-15T16:02:37.223Z,4.80
2023-11-15T16:05:05.892Z,4.20
2023-11-15T16:07:33.589Z,19.20
2023-11-15T16:10:07.400Z,10.20
2023-11-15T16:12:39.974Z,20.80
2023-11-15T16:15:08.434Z,16.50
2023-11-15T16:17:36.216Z,9.00
2023-11-15T16:20:04.836Z,11.30
2023-11-15T16:22:32.525Z,5.40
2023-11-15T16:25:00.006Z,4.60
2023-11-15T16:27:34.283Z,8.40
2023-11-15T16:30:11.022Z,11.20
2023-11-15T16:32:42.034Z,9.50
2023-11-15T16:35:13.947Z,8.70
2023-11-15T16:37:43.205Z,4.20
2023-11-15T16:40:12.724Z,5.40
2023-11-15T16:42:41.079Z,4.50
2023-11-15T16:45:09.907Z,8.10
2023-11-15T16:47:39.638Z,4.50
2023-11-15T16:50:08.418Z,6.30
2023-11-15T16:52:36.089Z,5.30
2023-11-15T16:55:05.424Z,5.60
2023-11-15T16:57:34.184Z,6.90
2023-11-15T17:00:01.891Z,5.90
2023-11-15T17:02:29.611Z,7.10
2023-11-15T17:04:58.454Z,6.80
2023-11-15T17:07:25.943Z,4.20
2023-11-15T17:09:53.640Z,4.30
2023-11-15T17:12:25.229Z,3.70
2023-11-15T17:14:53.157Z,3.80
2023-11-15T17:17:21.127Z,2.60
2023-11-15T17:19:49.703Z,2.80
2023-11-15T17:22:20.905Z,2.90
2023-11-15T17:24:49.066Z,3.40
2023-11-15T17:27:16.921Z,4.40
2023-11-15T17:29:49.869Z,3.80
2023-11-15T17:32:17.927Z,3.30
2023-11-15T17:34:50.103Z,3.30
2023-11-15T17:37:18.212Z,4.70
2023-11-15T17:39:45.861Z,5.10
2023-11-15T17:42:13.477Z,4.40
2023-11-15T17:44:42.021Z,4.20
2023-11-15T17:47:13.017Z,4.00
2023-11-15T17:49:40.573Z,3.90
2023-11-15T17:52:11.299Z,3.80
2023-11-15T17:54:39.209Z,5.60
2023-11-15T17:57:06.999Z,3.80
2023-11-15T17:59:35.010Z,4.00
2023-11-15T18:02:05.438Z,4.00
2023-11-15T18:04:32.943Z,5.00
2023-11-15T18:07:00.537Z,3.40
2023-11-15T18:09:29.366Z,3.80
2023-11-15T18:11:57.018Z,3.30
2023-11-15T18:14:24.630Z,3.30
2023-11-15T18:16:54.395Z,3.00
2023-11-15T18:19:22.992Z,2.70
2023-11-15T18:21:51.953Z,3.10
2023-11-15T18:24:19.545Z,3.10
2023-11-15T18:26:47.240Z,3.30
2023-11-15T18:29:14.768Z,3.20
2023-11-15T18:31:44.613Z,3.80
2023-11-15T18:34:12.548Z,3.70
2023-11-15T18:36:44.326Z,3.80
2023-11-15T18:39:16.516Z,4.30
2023-11-15T18:41:45.791Z,4.70
2023-11-15T18:44:17.176Z,4.60
2023-11-15T18:46:49.100Z,4.00
2023-11-15T18:49:18.564Z,6.20
2023-11-15T18:51:50.530Z,6.50
2023-11-15T18:54:18.159Z,6.30
2023-11-15T18:56:46.258Z,5.50
2023-11-15T18:59:14.935Z,5.10
2023-11-15T19:01:45.393Z,5.00
2023-11-15T19:04:13.384Z,6.50
2023-11-15T19:06:41.124Z,7.60
2023-11-15T19:09:12.291Z,8.10
2023-11-15T19:11:40.576Z,8.60
2023-11-15T19:14:09.467Z,7.70
2023-11-15T19:16:37.657Z,8.30
2023-11-15T19:19:06.092Z,8.20
2023-11-15T19:21:33.669Z,7.10
2023-11-15T19:24:01.629Z,8.20
2023-11-15T19:26:32.218Z,11.10
2023-11-15T19:28:59.738Z,12.80
2023-11-15T19:31:27.231Z,13.90
2023-11-15T19:33:55.287Z,13.00
2023-11-15T19:36:23.165Z,10.20
2023-11-15T19:38:50.733Z,7.80
2023-11-15T19:41:21.370Z,7.40
2023-11-15T19:43:49.329Z,6.40
2023-11-15T19:46:21.081Z,4.40
2023-11-15T19:48:49.478Z,2.00
2023-11-15T19:51:36.935Z,2.40
2023-11-15T19:54:08.629Z,2.50
2023-11-15T19:56:36.486Z,1.90
2023-11-15T19:59:05.174Z,1.70
2023-11-15T20:01:32.872Z,1.30
2023-11-15T20:04:04.620Z,1.00
2023-11-15T20:06:32.785Z,1.00
2023-11-15T20:09:00.471Z,1.30
2023-11-15T20:11:32.575Z,1.50
2023-11-15T20:14:01.154Z,1.70
2023-11-15T20:16:29.445Z,1.60
2023-11-15T20:18:57.481Z,1.60
2023-11-15T20:21:25.083Z,1.90
2023-11-15T20:23:54.434Z,1.20
2023-11-15T20:26:22.047Z,2.30
2023-11-15T20:28:49.644Z,2.90
2023-11-15T20:31:17.357Z,2.30
2023-11-15T20:33:44.901Z,2.80
2023-11-15T20:36:14.040Z,2.20
2023-11-15T20:38:42.496Z,1.80
2023-11-15T20:41:11.635Z,1.40
2023-11-15T20:43:39.094Z,1.20
2023-11-15T20:46:17.350Z,0.90
2023-11-15T20:48:47.441Z,0.90
2023-11-15T20:51:15.928Z,1.00
2023-11-15T20:53:43.509Z,1.00
2023-11-15T20:56:11.254Z,0.80
2023-11-15T20:58:38.739Z,0.90
2023-11-15T21:01:07.804Z,0.80
2023-11-15T21:03:35.512Z,0.70
2023-11-15T21:06:05.142Z,1.00
2023-11-15T21:08:33.559Z,0.70
2023-11-15T21:11:02.155Z,0.50
2023-11-15T21:13:32.319Z,0.70
2023-11-15T21:16:00.094Z,0.40
2023-11-15T21:18:27.671Z,0.70
2023-11-15T21:20:59.101Z,0.50
2023-11-15T21:23:30.261Z,0.40
2023-11-15T21:25:57.842Z,0.30
2023-11-15T21:28:25.706Z,0.30
2023-11-15T21:30:53.289Z,0.40
2023-11-15T21:33:21.005Z,0.50
2023-11-15T21:35:50.571Z,0.50
2023-11-15T21:38:19.173Z,0.40
2023-11-15T21:40:46.736Z,0.50
2023-11-15T21:43:14.808Z,0.50
2023-11-15T21:45:42.368Z,0.50
2023-11-15T21:48:10.298Z,0.30
2023-11-15T21:50:38.017Z,0.30
2023-11-15T21:53:05.758Z,0.60
2023-11-15T21:55:35.698Z,0.40
2023-11-15T21:59:45.181Z,0.70
2023-11-15T22:02:12.716Z,0.50
2023-11-15T22:04:41.476Z,0.40
2023-11-15T22:07:09.578Z,0.40
2023-11-15T22:09:37.102Z,0.40
2023-11-15T22:12:05.084Z,0.50
2023-11-15T22:14:32.966Z,0.30
2023-11-15T22:17:00.524Z,0.40
2023-11-15T22:19:30.397Z,0.30
2023-11-15T22:21:58.017Z,0.30
2023-11-15T22:24:25.574Z,0.30
2023-11-15T22:26:53.092Z,0.40
2023-11-15T22:29:20.586Z,0.40
2023-11-15T22:31:51.342Z,0.70
2023-11-15T22:34:20.574Z,0.90
2023-11-15T22:36:48.015Z,0.90
2023-11-15T22:39:15.985Z,0.60
2023-11-15T22:41:43.525Z,0.70
2023-11-15T22:44:11.105Z,0.60
2023-11-15T22:46:38.652Z,1.10
2023-11-15T22:49:06.118Z,1.10
2023-11-15T22:51:33.665Z,0.90
2023-11-15T22:54:01.287Z,0.90
2023-11-15T22:56:29.259Z,0.80
2023-11-15T22:58:56.759Z,0.60
2023-11-15T23:01:24.397Z,0.70
2023-11-15T23:03:53.247Z,1.70
2023-11-15T23:06:21.206Z,1.30
2023-11-15T23:08:51.653Z,0.60
2023-11-15T23:11:20.234Z,0.90
2023-11-15T23:13:49.247Z,0.90
2023-11-15T23:16:16.723Z,0.50
2023-11-15T23:18:45.133Z,0.70
2023-11-15T23:21:12.752Z,0.60
2023-11-15T23:23:40.288Z,0.80
2023-11-15T23:26:11.537Z,0.70
2023-11-15T23:28:39.045Z,1.00
2023-11-15T23:31:07.883Z,1.00
2023-11-15T23:33:35.651Z,1.00
2023-11-15T23:36:03.369Z,0.70
2023-11-15T23:38:30.913Z,0.60
2023-11-15T23:40:58.398Z,0.50
2023-11-15T23:43:29.915Z,1.10
2023-11-15T23:45:58.695Z,0.60
2023-11-15T23:48:26.198Z,0.80
2023-11-15T23:50:56.669Z,0.60
2023-11-15T23:53:24.233Z,0.60
2023-11-15T23:55:51.764Z,1.00
2023-11-15T23:58:20.571Z,0.90
